Terminal Aerodrome Forecast
Issued by NWS

Home | Current Version | Previous Version | Text Only | Print | Product List | Glossary On
Versions: 1 2 3 4 5 6 7 8 9 10 11 12 13 14 15 16
000
FTUS42 TJSJ 301100
TAFNCM
TAF
TNCM 301139Z 3012/3112 14010KT P6SM VCTS SCT020CB
      TEMPO 3012/3014 4SM SHRA BKN015
     FM301400 16010KT P6SM SCT022
     FM302300 VRB05KT P6SM SCT020=

USA.gov is the U.S. government's official web portal to all federal, state and local government web resources and services.